createdAt,value
2023-03-10T00:00:03.889Z,6
2023-03-10T00:01:12.336Z,6
2023-03-10T00:02:27.521Z,6
2023-03-10T00:03:34.531Z,6
2023-03-10T00:04:41.668Z,6
2023-03-10T00:05:49.509Z,6
2023-03-10T00:06:57.680Z,6
2023-03-10T00:08:04.635Z,6
2023-03-10T00:09:12.115Z,6
2023-03-10T00:10:19.442Z,7
2023-03-10T00:11:26.995Z,7
2023-03-10T00:12:37.653Z,6
2023-03-10T00:13:48.549Z,6
2023-03-10T00:15:01.350Z,6
2023-03-10T00:16:08.601Z,6
2023-03-10T00:17:20.660Z,5
2023-03-10T00:18:30.321Z,5
2023-03-10T00:19:37.331Z,4
2023-03-10T00:20:44.288Z,4
2023-03-10T00:21:53.934Z,6
2023-03-10T00:23:00.987Z,4
2023-03-10T00:24:08.838Z,4
2023-03-10T00:25:15.848Z,4
2023-03-10T00:26:22.758Z,4
2023-03-10T00:27:29.769Z,3
2023-03-10T00:28:36.983Z,3
2023-03-10T00:29:44.117Z,4
2023-03-10T00:30:51.089Z,3
2023-03-10T00:32:03.676Z,4
2023-03-10T00:33:10.937Z,3
2023-03-10T00:34:18.038Z,3
2023-03-10T00:35:26.447Z,3
2023-03-10T00:36:33.439Z,3
2023-03-10T00:37:40.724Z,3
2023-03-10T00:38:49.482Z,3
2023-03-10T00:39:57.361Z,3
2023-03-10T00:41:04.357Z,3
2023-03-10T00:42:11.355Z,4
2023-03-10T00:43:22.316Z,3
2023-03-10T00:44:30.221Z,4
2023-03-10T00:45:40.716Z,4
2023-03-10T00:46:47.791Z,3
2023-03-10T00:47:54.976Z,4
2023-03-10T00:49:01.901Z,4
2023-03-10T00:50:08.941Z,4
2023-03-10T00:51:16.186Z,3
2023-03-10T00:52:23.053Z,3
2023-03-10T00:53:30.112Z,4
2023-03-10T00:54:42.087Z,3
2023-03-10T00:55:49.756Z,3
2023-03-10T00:57:01.801Z,3
2023-03-10T00:58:13.074Z,3
2023-03-10T00:59:20.037Z,3
2023-03-10T01:00:31.549Z,3
2023-03-10T01:01:39.057Z,3
2023-03-10T01:02:50.037Z,3
2023-03-10T01:03:57.003Z,3
2023-03-10T01:05:03.980Z,3
2023-03-10T01:06:11.170Z,3
2023-03-10T01:07:18.380Z,3
2023-03-10T01:08:26.671Z,3
2023-03-10T01:09:33.792Z,3
2023-03-10T01:10:40.920Z,2
2023-03-10T01:11:47.846Z,3
2023-03-10T01:12:55.694Z,3
2023-03-10T01:14:02.645Z,2
2023-03-10T01:15:09.680Z,3
2023-03-10T01:16:19.942Z,2
2023-03-10T01:17:26.821Z,3
2023-03-10T01:18:33.729Z,2
2023-03-10T01:19:41.256Z,2
2023-03-10T01:20:51.952Z,2
2023-03-10T01:21:59.531Z,2
2023-03-10T01:23:07.405Z,2
2023-03-10T01:24:17.367Z,3
2023-03-10T01:25:24.316Z,2
2023-03-10T01:26:31.499Z,3
2023-03-10T01:27:38.770Z,3
2023-03-10T01:28:47.156Z,2
2023-03-10T01:29:55.392Z,2
2023-03-10T01:31:02.388Z,2
2023-03-10T01:32:09.429Z,2
2023-03-10T01:33:18.444Z,2
2023-03-10T01:34:25.369Z,3
2023-03-10T01:35:35.946Z,2
2023-03-10T01:36:48.180Z,2
2023-03-10T01:37:57.935Z,2
2023-03-10T01:39:04.922Z,2
2023-03-10T01:40:12.057Z,2
2023-03-10T01:41:19.942Z,2
2023-03-10T01:42:29.868Z,2
2023-03-10T01:43:39.938Z,2
2023-03-10T01:44:51.877Z,2
2023-03-10T01:46:08.932Z,2
2023-03-10T01:47:26.076Z,2
2023-03-10T01:48:33.452Z,2
2023-03-10T01:49:40.415Z,2
2023-03-10T01:50:48.691Z,2
2023-03-10T01:51:55.735Z,2
2023-03-10T01:53:16.244Z,2
2023-03-10T01:54:23.177Z,2
2023-03-10T01:55:30.267Z,2
2023-03-10T01:56:37.403Z,2
2023-03-10T01:57:44.378Z,2
2023-03-10T01:58:54.367Z,3
2023-03-10T02:00:01.274Z,2
2023-03-10T02:01:08.631Z,2
2023-03-10T02:02:15.637Z,3
2023-03-10T02:03:22.614Z,3
2023-03-10T02:04:29.527Z,3
2023-03-10T02:05:36.451Z,2
2023-03-10T02:06:47.722Z,2
2023-03-10T02:07:54.798Z,2
2023-03-10T02:09:05.221Z,2
2023-03-10T02:10:12.195Z,3
2023-03-10T02:11:21.200Z,3
2023-03-10T02:12:29.869Z,2
2023-03-10T02:13:36.824Z,2
2023-03-10T02:14:44.113Z,3
2023-03-10T02:15:54.799Z,3
2023-03-10T02:17:01.806Z,3
2023-03-10T02:18:14.432Z,3
2023-03-10T02:19:21.510Z,2
2023-03-10T02:20:28.627Z,2
2023-03-10T02:21:40.767Z,3
2023-03-10T02:22:47.798Z,3
2023-03-10T02:24:00.785Z,2
2023-03-10T02:25:07.622Z,2
2023-03-10T02:26:24.868Z,3
2023-03-10T02:27:41.992Z,2
2023-03-10T02:28:51.819Z,2
2023-03-10T02:30:01.433Z,2
2023-03-10T02:31:11.300Z,2
2023-03-10T02:32:18.757Z,2
2023-03-10T02:33:26.630Z,2
2023-03-10T02:34:34.615Z,3
2023-03-10T02:35:45.611Z,2
2023-03-10T02:36:52.523Z,2
2023-03-10T02:37:59.722Z,2
2023-03-10T02:39:06.907Z,2
2023-03-10T02:40:13.869Z,2
2023-03-10T02:41:28.559Z,2
2023-03-10T02:42:35.616Z,3
2023-03-10T02:43:43.570Z,2
2023-03-10T02:44:54.352Z,2
2023-03-10T02:46:01.311Z,2
2023-03-10T02:47:08.119Z,2
2023-03-10T02:48:16.000Z,2
2023-03-10T02:49:28.614Z,2
2023-03-10T02:50:36.230Z,3
2023-03-10T02:51:45.997Z,2
2023-03-10T02:52:53.193Z,3
2023-03-10T02:54:03.153Z,3
2023-03-10T02:55:10.158Z,2
2023-03-10T02:56:19.724Z,3
2023-03-10T02:57:27.482Z,3
2023-03-10T02:58:34.507Z,3
2023-03-10T02:59:41.468Z,2
2023-03-10T03:00:49.419Z,3
2023-03-10T03:01:56.661Z,3
2023-03-10T03:03:03.644Z,3
2023-03-10T03:04:11.916Z,3
2023-03-10T03:05:21.174Z,3
2023-03-10T03:06:29.911Z,3
2023-03-10T03:07:37.794Z,3
2023-03-10T03:08:44.839Z,3
2023-03-10T03:09:51.992Z,3
2023-03-10T03:10:59.163Z,3
2023-03-10T03:12:06.132Z,3
2023-03-10T03:13:13.145Z,3
2023-03-10T03:14:20.091Z,3
2023-03-10T03:15:27.172Z,3
2023-03-10T03:16:34.526Z,3
2023-03-10T03:17:45.021Z,3
2023-03-10T03:18:51.949Z,2
2023-03-10T03:19:58.875Z,3
2023-03-10T03:21:05.849Z,3
2023-03-10T03:22:12.786Z,3
2023-03-10T03:23:20.651Z,3
2023-03-10T03:24:28.039Z,3
2023-03-10T03:25:37.522Z,3
2023-03-10T03:26:45.290Z,3
2023-03-10T03:27:52.235Z,3
2023-03-10T03:28:59.530Z,3
2023-03-10T03:30:09.445Z,3
2023-03-10T03:31:20.189Z,3
2023-03-10T03:32:27.042Z,3
2023-03-10T03:33:36.193Z,3
2023-03-10T03:34:43.986Z,2
2023-03-10T03:35:51.125Z,3
2023-03-10T03:36:58.030Z,3
2023-03-10T03:38:05.149Z,3
2023-03-10T03:39:15.268Z,2
2023-03-10T03:40:22.373Z,2
2023-03-10T03:41:29.282Z,2
2023-03-10T03:42:36.269Z,3
2023-03-10T03:43:46.103Z,3
2023-03-10T03:44:56.585Z,3
2023-03-10T03:46:04.407Z,3
2023-03-10T03:47:11.345Z,3
2023-03-10T03:48:20.660Z,2
2023-03-10T03:49:26.215Z,3
2023-03-10T03:50:33.204Z,2
2023-03-10T03:51:44.775Z,2
2023-03-10T03:52:51.701Z,2
2023-03-10T03:53:58.909Z,2
2023-03-10T03:55:06.134Z,2
2023-03-10T03:56:13.471Z,2
2023-03-10T03:57:21.286Z,2
2023-03-10T03:58:30.286Z,3
2023-03-10T03:59:42.046Z,3
2023-03-10T04:00:52.140Z,2
2023-03-10T04:01:59.902Z,2
2023-03-10T04:03:06.823Z,2
2023-03-10T04:04:14.912Z,3
2023-03-10T04:05:22.734Z,4
2023-03-10T04:06:31.892Z,4
2023-03-10T04:07:38.869Z,4
2023-03-10T04:08:45.979Z,3
2023-03-10T04:09:52.973Z,3
2023-03-10T04:11:03.524Z,4
2023-03-10T04:12:10.469Z,4
2023-03-10T04:13:17.590Z,2
2023-03-10T04:14:24.571Z,3
2023-03-10T04:15:34.986Z,2
2023-03-10T04:16:46.900Z,3
2023-03-10T04:17:53.879Z,2
2023-03-10T04:19:03.663Z,3
2023-03-10T04:20:10.655Z,3
2023-03-10T04:21:17.691Z,3
2023-03-10T04:22:24.747Z,2
2023-03-10T04:23:31.698Z,3
2023-03-10T04:24:38.792Z,3
2023-03-10T04:25:48.638Z,3
2023-03-10T04:26:55.812Z,3
2023-03-10T04:28:03.973Z,3
2023-03-10T04:29:11.025Z,3
2023-03-10T04:30:18.061Z,3
2023-03-10T04:31:27.859Z,4
2023-03-10T04:32:35.971Z,3
2023-03-10T04:33:43.268Z,3
2023-03-10T04:34:53.088Z,4
2023-03-10T04:36:00.354Z,4
2023-03-10T04:37:08.030Z,3
2023-03-10T04:38:16.378Z,3
2023-03-10T04:39:23.411Z,3
2023-03-10T04:40:35.921Z,5
2023-03-10T04:41:42.985Z,4
2023-03-10T04:42:49.987Z,4
2023-03-10T04:43:56.953Z,4
2023-03-10T04:45:03.989Z,4
2023-03-10T04:46:15.093Z,3
2023-03-10T04:47:22.915Z,3
2023-03-10T04:48:29.906Z,3
2023-03-10T04:49:36.967Z,3
2023-03-10T04:50:43.907Z,2
2023-03-10T04:51:53.689Z,2
2023-03-10T04:53:00.779Z,2
2023-03-10T04:54:07.744Z,2
2023-03-10T04:55:14.706Z,2
2023-03-10T04:56:21.668Z,2
2023-03-10T04:57:29.466Z,2
2023-03-10T04:58:36.382Z,2
2023-03-10T04:59:46.735Z,2
2023-03-10T05:01:02.626Z,2
2023-03-10T05:02:06.941Z,2
2023-03-10T05:03:13.805Z,3
2023-03-10T05:04:24.089Z,3
2023-03-10T05:05:31.313Z,3
2023-03-10T05:06:41.136Z,4
2023-03-10T05:07:48.892Z,4
2023-03-10T05:08:55.811Z,4
2023-03-10T05:10:04.578Z,4
2023-03-10T05:11:11.879Z,3
2023-03-10T05:12:20.189Z,3
2023-03-10T05:13:28.936Z,3
2023-03-10T05:14:34.259Z,3
2023-03-10T05:15:41.314Z,4
2023-03-10T05:16:49.845Z,4
2023-03-10T05:17:56.900Z,4
2023-03-10T05:19:04.320Z,4
2023-03-10T05:20:12.523Z,4
2023-03-10T05:21:22.851Z,3
2023-03-10T05:22:29.985Z,3
2023-03-10T05:23:37.597Z,3
2023-03-10T05:24:45.756Z,3
2023-03-10T05:25:53.314Z,3
2023-03-10T05:27:02.008Z,3
2023-03-10T05:28:09.069Z,4
2023-03-10T05:29:16.084Z,4
2023-03-10T05:30:25.696Z,4
2023-03-10T05:31:32.791Z,4
2023-03-10T05:32:42.357Z,3
2023-03-10T05:33:50.312Z,4
2023-03-10T05:34:58.745Z,4
2023-03-10T05:36:07.700Z,4
2023-03-10T05:37:17.286Z,3
2023-03-10T05:38:24.901Z,3
2023-03-10T05:39:35.443Z,3
2023-03-10T05:40:43.400Z,3
2023-03-10T05:41:50.372Z,4
2023-03-10T05:43:00.444Z,4
2023-03-10T05:44:08.581Z,5
2023-03-10T05:45:18.958Z,5
2023-03-10T05:46:28.516Z,5
2023-03-10T05:47:35.547Z,4
2023-03-10T05:48:47.226Z,4
2023-03-10T05:49:54.242Z,3
2023-03-10T05:51:04.094Z,3
2023-03-10T05:52:14.180Z,4
2023-03-10T05:53:21.153Z,3
2023-03-10T05:54:28.094Z,3
2023-03-10T05:55:35.083Z,3
2023-03-10T05:56:42.218Z,3
2023-03-10T05:57:51.220Z,3
2023-03-10T05:59:02.078Z,3
2023-03-10T06:00:13.156Z,3
2023-03-10T06:01:22.157Z,3
2023-03-10T06:02:29.046Z,3
2023-03-10T06:03:37.177Z,3
2023-03-10T06:04:44.064Z,2
2023-03-10T06:05:54.549Z,2
2023-03-10T06:07:01.471Z,3
2023-03-10T06:08:08.429Z,2
2023-03-10T06:09:15.382Z,3
2023-03-10T06:10:22.246Z,2
2023-03-10T06:11:29.199Z,3
2023-03-10T06:12:36.153Z,2
2023-03-10T06:13:44.320Z,3
2023-03-10T06:14:51.315Z,3
2023-03-10T06:15:58.413Z,3
2023-03-10T06:17:10.024Z,3
2023-03-10T06:18:20.064Z,3
2023-03-10T06:19:27.150Z,2
2023-03-10T06:20:38.098Z,2
2023-03-10T06:21:59.753Z,2
2023-03-10T06:23:08.986Z,2
2023-03-10T06:24:16.657Z,2
2023-03-10T06:25:23.937Z,3
2023-03-10T06:26:30.939Z,3
2023-03-10T06:27:38.490Z,3
2023-03-10T06:28:45.527Z,3
2023-03-10T06:29:54.419Z,3
2023-03-10T06:31:01.409Z,2
2023-03-10T06:32:08.424Z,3
2023-03-10T06:33:18.165Z,3
2023-03-10T06:34:25.372Z,3
2023-03-10T06:35:33.457Z,2
2023-03-10T06:36:40.591Z,3
2023-03-10T06:37:49.973Z,3
2023-03-10T06:39:00.440Z,2
2023-03-10T06:40:07.597Z,3
2023-03-10T06:41:16.403Z,3
2023-03-10T06:42:25.657Z,2
2023-03-10T06:43:32.605Z,3
2023-03-10T06:44:41.324Z,3
2023-03-10T06:45:46.501Z,3
2023-03-10T06:46:52.519Z,3
2023-03-10T06:48:00.705Z,3
2023-03-10T06:49:08.218Z,2
2023-03-10T06:50:15.249Z,3
2023-03-10T06:51:22.412Z,3
2023-03-10T06:52:30.238Z,3
2023-03-10T06:53:37.366Z,3
2023-03-10T06:54:47.189Z,4
2023-03-10T06:55:57.421Z,3
2023-03-10T06:57:04.504Z,3
2023-03-10T06:58:12.340Z,4
2023-03-10T06:59:21.824Z,4
2023-03-10T07:00:28.808Z,4
2023-03-10T07:01:38.816Z,3
2023-03-10T07:02:48.099Z,3
2023-03-10T07:03:55.455Z,4
2023-03-10T07:05:02.901Z,4
2023-03-10T07:06:09.873Z,3
2023-03-10T07:07:16.845Z,4
2023-03-10T07:08:24.043Z,4
2023-03-10T07:09:31.847Z,4
2023-03-10T07:10:41.725Z,4
2023-03-10T07:11:48.705Z,4
2023-03-10T07:12:58.367Z,4
2023-03-10T07:14:05.334Z,5
2023-03-10T07:15:12.414Z,5
2023-03-10T07:16:20.920Z,8
2023-03-10T07:17:28.730Z,7
2023-03-10T07:18:36.367Z,7
2023-03-10T07:19:45.166Z,7
2023-03-10T07:20:52.398Z,7
2023-03-10T07:21:59.386Z,7
2023-03-10T07:23:09.262Z,6
2023-03-10T07:24:18.806Z,6
2023-03-10T07:25:25.965Z,6
2023-03-10T07:26:33.177Z,6
2023-03-10T07:27:44.821Z,6
2023-03-10T07:28:54.764Z,6
2023-03-10T07:30:04.654Z,6
2023-03-10T07:31:13.148Z,6
2023-03-10T07:32:21.032Z,6
2023-03-10T07:33:30.778Z,6
2023-03-10T07:34:40.904Z,6
2023-03-10T07:35:50.273Z,5
2023-03-10T07:36:57.267Z,6
2023-03-10T07:38:06.941Z,6
2023-03-10T07:39:15.176Z,6
2023-03-10T07:40:23.069Z,6
2023-03-10T07:41:30.086Z,6
2023-03-10T07:42:37.309Z,5
2023-03-10T07:43:44.288Z,5
2023-03-10T07:44:52.021Z,5
2023-03-10T07:45:59.077Z,5
2023-03-10T07:47:11.020Z,5
2023-03-10T07:48:18.573Z,5
2023-03-10T07:49:25.865Z,4
2023-03-10T07:50:32.849Z,4
2023-03-10T07:51:43.113Z,5
2023-03-10T07:52:54.361Z,5
2023-03-10T07:54:02.245Z,5
2023-03-10T07:55:10.058Z,5
2023-03-10T07:56:17.180Z,5
2023-03-10T07:57:24.135Z,6
2023-03-10T07:58:30.995Z,5
2023-03-10T07:59:38.111Z,6
2023-03-10T08:00:44.683Z,6
2023-03-10T08:01:56.869Z,6
2023-03-10T08:03:03.782Z,5
2023-03-10T08:04:10.846Z,6
2023-03-10T08:05:17.751Z,6
2023-03-10T08:06:25.521Z,6
2023-03-10T08:07:32.377Z,6
2023-03-10T08:08:39.482Z,6
2023-03-10T08:09:47.241Z,6
2023-03-10T08:10:54.139Z,6
2023-03-10T08:12:07.898Z,6
2023-03-10T08:13:14.924Z,5
2023-03-10T08:14:21.714Z,6
2023-03-10T08:15:28.706Z,5
2023-03-10T08:16:35.845Z,6
2023-03-10T08:17:42.767Z,6
2023-03-10T08:18:49.689Z,5
2023-03-10T08:19:56.504Z,5
2023-03-10T08:21:03.425Z,4
2023-03-10T08:22:10.287Z,4
2023-03-10T08:23:17.167Z,3
2023-03-10T08:24:24.256Z,4
2023-03-10T08:25:31.131Z,3
2023-03-10T08:26:38.173Z,3
2023-03-10T08:27:45.313Z,3
2023-03-10T08:28:52.220Z,3
2023-03-10T08:29:59.089Z,3
2023-03-10T08:31:06.078Z,3
2023-03-10T08:32:18.053Z,3
2023-03-10T08:33:24.807Z,3
2023-03-10T08:34:31.650Z,3
2023-03-10T08:35:38.513Z,3
2023-03-10T08:36:45.302Z,3
2023-03-10T08:37:54.807Z,3
2023-03-10T08:38:59.117Z,3
2023-03-10T08:40:05.930Z,3
2023-03-10T08:41:13.342Z,3
2023-03-10T08:42:20.103Z,3
2023-03-10T08:43:27.043Z,3
2023-03-10T08:44:34.198Z,3
2023-03-10T08:45:41.134Z,3
2023-03-10T08:46:48.047Z,4
2023-03-10T08:47:54.944Z,3
2023-03-10T08:49:01.992Z,3
2023-03-10T08:50:08.865Z,3
2023-03-10T08:51:16.413Z,3
2023-03-10T08:52:22.481Z,3
2023-03-10T08:53:29.355Z,3
2023-03-10T08:54:36.322Z,3
2023-03-10T08:55:43.273Z,3
2023-03-10T08:56:50.009Z,3
2023-03-10T08:57:56.898Z,3
2023-03-10T08:59:03.738Z,3
2023-03-10T09:00:10.510Z,3
2023-03-10T09:01:17.618Z,3
2023-03-10T09:02:24.593Z,3
2023-03-10T09:03:31.944Z,3
2023-03-10T09:04:41.070Z,3
2023-03-10T09:05:47.942Z,3
2023-03-10T09:06:54.902Z,3
2023-03-10T09:08:01.712Z,3
2023-03-10T09:09:08.568Z,3
2023-03-10T09:10:15.363Z,3
2023-03-10T09:11:22.321Z,3
2023-03-10T09:12:34.153Z,3
2023-03-10T09:13:36.265Z,3
2023-03-10T09:14:43.186Z,3
2023-03-10T09:15:50.038Z,3
2023-03-10T09:16:57.817Z,3
2023-03-10T09:18:05.207Z,3
2023-03-10T09:19:12.076Z,3
2023-03-10T09:20:18.946Z,3
2023-03-10T09:21:25.870Z,3
2023-03-10T09:22:32.905Z,3
2023-03-10T09:23:39.742Z,3
2023-03-10T09:24:46.607Z,4
2023-03-10T09:25:53.722Z,3
2023-03-10T09:27:00.742Z,4
2023-03-10T09:28:07.758Z,4
2023-03-10T09:29:14.616Z,4
2023-03-10T09:30:21.607Z,3
2023-03-10T09:31:28.693Z,4
2023-03-10T09:32:35.642Z,4
2023-03-10T09:33:42.616Z,4
2023-03-10T09:34:49.472Z,4
2023-03-10T09:36:07.288Z,4
2023-03-10T09:37:04.258Z,4
2023-03-10T09:38:12.016Z,4
2023-03-10T09:39:19.875Z,4
2023-03-10T09:40:26.817Z,4
2023-03-10T09:41:35.248Z,4
2023-03-10T09:42:45.818Z,4
2023-03-10T09:43:57.872Z,4
2023-03-10T09:45:07.947Z,3
2023-03-10T09:46:18.124Z,3
2023-03-10T09:47:30.081Z,3
2023-03-10T09:48:41.979Z,3
2023-03-10T09:49:53.851Z,3
2023-03-10T09:51:14.074Z,2
2023-03-10T09:52:24.190Z,2
2023-03-10T09:53:41.149Z,3
2023-03-10T09:54:53.106Z,3
2023-03-10T09:56:00.155Z,3
2023-03-10T09:57:07.030Z,3
2023-03-10T09:58:14.163Z,3
2023-03-10T09:59:24.826Z,3
2023-03-10T10:00:36.713Z,3
2023-03-10T10:01:43.525Z,4
2023-03-10T10:02:50.516Z,5
2023-03-10T10:04:05.541Z,4
2023-03-10T10:05:21.160Z,3
2023-03-10T10:06:28.618Z,4
2023-03-10T10:07:37.788Z,3
2023-03-10T10:08:49.008Z,4
2023-03-10T10:09:51.428Z,4
2023-03-10T10:11:04.714Z,3
2023-03-10T10:12:11.788Z,4
2023-03-10T10:13:18.834Z,4
2023-03-10T10:14:29.778Z,4
2023-03-10T10:15:35.390Z,3
2023-03-10T10:16:39.752Z,3
2023-03-10T10:17:55.017Z,3
2023-03-10T10:19:04.158Z,4
2023-03-10T10:20:16.275Z,3
2023-03-10T10:21:25.955Z,3
2023-03-10T10:22:37.098Z,4
2023-03-10T10:23:43.915Z,4
2023-03-10T10:24:52.788Z,4
2023-03-10T10:26:05.958Z,3
2023-03-10T10:27:15.842Z,3
2023-03-10T10:28:22.866Z,3
2023-03-10T10:29:29.768Z,3
2023-03-10T10:30:36.713Z,3
2023-03-10T10:31:43.478Z,3
2023-03-10T10:33:00.489Z,3
2023-03-10T10:34:17.474Z,3
2023-03-10T10:35:24.248Z,3
2023-03-10T10:36:31.153Z,3
2023-03-10T10:37:41.566Z,4
2023-03-10T10:38:48.417Z,4
2023-03-10T10:39:55.297Z,4
2023-03-10T10:41:02.231Z,5
2023-03-10T10:42:09.188Z,5
2023-03-10T10:43:21.121Z,4
2023-03-10T10:44:27.923Z,4
2023-03-10T10:45:34.810Z,4
2023-03-10T10:46:41.624Z,4
2023-03-10T10:47:54.468Z,4
2023-03-10T10:49:01.324Z,4
2023-03-10T10:50:08.188Z,4
2023-03-10T10:51:23.048Z,3
2023-03-10T10:52:32.897Z,4
2023-03-10T10:53:39.709Z,3
2023-03-10T10:54:46.601Z,4
2023-03-10T10:55:56.201Z,3
2023-03-10T10:57:08.365Z,3
2023-03-10T10:58:20.926Z,3
2023-03-10T10:59:32.813Z,4
2023-03-10T11:00:39.739Z,3
2023-03-10T11:01:46.854Z,3
2023-03-10T11:02:59.635Z,3
2023-03-10T11:04:17.618Z,4
2023-03-10T11:05:23.601Z,3
2023-03-10T11:06:35.585Z,4
2023-03-10T11:07:43.200Z,4
2023-03-10T11:08:50.110Z,3
2023-03-10T11:10:07.083Z,4
2023-03-10T11:11:16.905Z,4
2023-03-10T11:12:28.797Z,3
2023-03-10T11:13:38.424Z,4
2023-03-10T11:14:47.889Z,4
2023-03-10T11:16:04.917Z,4
2023-03-10T11:17:19.465Z,4
2023-03-10T11:18:29.777Z,4
2023-03-10T11:19:41.820Z,4
2023-03-10T11:20:56.671Z,3
2023-03-10T11:22:08.664Z,3
2023-03-10T11:23:21.409Z,3
2023-03-10T11:24:33.440Z,4
2023-03-10T11:25:45.390Z,3
2023-03-10T11:26:55.292Z,4
2023-03-10T11:28:04.907Z,3
2023-03-10T11:29:19.984Z,4
2023-03-10T11:30:34.884Z,4
2023-03-10T11:31:41.790Z,3
2023-03-10T11:32:53.741Z,4
2023-03-10T11:34:00.675Z,3
2023-03-10T11:35:12.493Z,4
2023-03-10T11:36:25.366Z,3
2023-03-10T11:37:37.273Z,3
2023-03-10T11:38:46.795Z,3
2023-03-10T11:39:53.680Z,3
2023-03-10T11:41:08.470Z,3
2023-03-10T11:42:18.262Z,3
2023-03-10T11:43:35.322Z,3
2023-03-10T11:44:44.935Z,3
2023-03-10T11:45:57.235Z,3
2023-03-10T11:47:04.075Z,3
2023-03-10T11:48:16.994Z,3
2023-03-10T11:49:32.798Z,3
2023-03-10T11:50:42.406Z,3
2023-03-10T11:51:54.358Z,3
2023-03-10T11:53:04.370Z,3
2023-03-10T11:54:17.068Z,3
2023-03-10T11:55:24.066Z,3
2023-03-10T11:56:30.944Z,3
2023-03-10T11:57:37.854Z,3
2023-03-10T11:58:44.913Z,4
2023-03-10T11:59:54.925Z,3
2023-03-10T12:01:05.634Z,3
2023-03-10T12:02:13.256Z,3
2023-03-10T12:03:31.524Z,3
2023-03-10T12:04:44.470Z,3
2023-03-10T12:05:57.341Z,3
2023-03-10T12:07:05.806Z,4
2023-03-10T12:08:15.352Z,3
2023-03-10T12:09:23.833Z,3
2023-03-10T12:10:37.286Z,3
2023-03-10T12:11:44.381Z,3
2023-03-10T12:12:51.724Z,3
2023-03-10T12:13:59.559Z,3
2023-03-10T12:15:07.824Z,3
2023-03-10T12:16:28.983Z,3
2023-03-10T12:17:36.181Z,3
2023-03-10T12:18:44.283Z,3
2023-03-10T12:19:51.938Z,3
2023-03-10T12:21:08.904Z,3
2023-03-10T12:22:24.013Z,3
2023-03-10T12:23:39.213Z,3
2023-03-10T12:24:47.173Z,3
2023-03-10T12:25:54.563Z,3
2023-03-10T12:27:02.091Z,3
2023-03-10T12:28:09.196Z,3
2023-03-10T12:29:20.369Z,3
2023-03-10T12:30:29.987Z,3
2023-03-10T12:31:47.474Z,3
2023-03-10T12:32:55.441Z,3
2023-03-10T12:34:02.788Z,3
2023-03-10T12:35:17.823Z,3
2023-03-10T12:36:30.844Z,3
2023-03-10T12:37:40.753Z,3
2023-03-10T12:38:48.997Z,3
2023-03-10T12:39:58.517Z,3
2023-03-10T12:41:16.163Z,4
2023-03-10T12:42:30.676Z,3
2023-03-10T12:43:40.222Z,3
2023-03-10T12:45:08.824Z,3
2023-03-10T12:46:20.401Z,4
2023-03-10T12:47:38.229Z,3
2023-03-10T12:48:48.085Z,3
2023-03-10T12:50:03.398Z,3
2023-03-10T12:51:18.528Z,3
2023-03-10T12:52:24.861Z,4
2023-03-10T12:53:36.859Z,3
2023-03-10T12:54:48.674Z,3
2023-03-10T12:56:07.307Z,3
2023-03-10T12:57:18.457Z,3
2023-03-10T12:58:32.256Z,3
2023-03-10T12:59:39.434Z,3
2023-03-10T13:00:54.931Z,4
2023-03-10T13:02:01.786Z,3
2023-03-10T13:03:09.477Z,3
2023-03-10T13:04:20.994Z,3
2023-03-10T13:05:27.840Z,3
2023-03-10T13:06:36.546Z,3
2023-03-10T13:07:44.851Z,3
2023-03-10T13:08:52.925Z,4
2023-03-10T13:10:04.971Z,3
2023-03-10T13:11:11.941Z,4
2023-03-10T13:12:24.592Z,3
2023-03-10T13:13:39.905Z,3
2023-03-10T13:14:46.850Z,4
2023-03-10T13:15:58.940Z,3
2023-03-10T13:17:05.934Z,4
2023-03-10T13:18:20.625Z,4
2023-03-10T13:19:27.533Z,4
2023-03-10T13:20:35.190Z,4
2023-03-10T13:21:42.986Z,5
2023-03-10T13:22:49.938Z,5
2023-03-10T13:23:59.766Z,4
2023-03-10T13:25:06.755Z,5
2023-03-10T13:26:16.425Z,5
2023-03-10T13:27:25.167Z,4
2023-03-10T13:28:31.232Z,4
2023-03-10T13:29:38.242Z,3
2023-03-10T13:30:50.918Z,4
2023-03-10T13:32:12.536Z,4
2023-03-10T13:33:25.382Z,3
2023-03-10T13:34:29.296Z,3
2023-03-10T13:35:36.306Z,4
2023-03-10T13:36:43.057Z,3
2023-03-10T13:37:49.899Z,3
2023-03-10T13:39:06.986Z,4
2023-03-10T13:40:22.710Z,3
2023-03-10T13:41:30.340Z,4
2023-03-10T13:42:44.022Z,4
2023-03-10T13:43:44.903Z,4
2023-03-10T13:44:51.852Z,3
2023-03-10T13:45:58.842Z,4
2023-03-10T13:47:06.528Z,4
2023-03-10T13:48:21.224Z,4
2023-03-10T13:49:29.013Z,4
2023-03-10T13:50:36.623Z,4
2023-03-10T13:51:44.512Z,5
2023-03-10T13:52:56.488Z,4
2023-03-10T13:54:03.443Z,5
2023-03-10T13:55:21.355Z,4
2023-03-10T13:56:28.245Z,4
2023-03-10T13:57:37.953Z,4
2023-03-10T13:58:44.957Z,4
2023-03-10T13:59:53.116Z,4
2023-03-10T14:01:01.347Z,4
2023-03-10T14:02:09.264Z,4
2023-03-10T14:03:22.360Z,4
2023-03-10T14:04:32.048Z,5
2023-03-10T14:05:47.543Z,5
2023-03-10T14:06:54.569Z,4
2023-03-10T14:08:10.217Z,4
2023-03-10T14:09:27.945Z,4
2023-03-10T14:10:35.379Z,4
2023-03-10T14:11:42.987Z,4
2023-03-10T14:12:53.021Z,5
2023-03-10T14:14:00.349Z,4
2023-03-10T14:15:08.753Z,4
2023-03-10T14:16:23.511Z,4
2023-03-10T14:17:40.850Z,4
2023-03-10T14:18:52.359Z,4
2023-03-10T14:20:00.260Z,4
2023-03-10T14:21:08.384Z,5
2023-03-10T14:22:25.683Z,4
2023-03-10T14:23:37.810Z,5
2023-03-10T14:24:45.082Z,4
2023-03-10T14:25:53.779Z,4
2023-03-10T14:27:01.449Z,4
2023-03-10T14:28:08.745Z,4
2023-03-10T14:29:15.889Z,4
2023-03-10T14:30:25.687Z,4
2023-03-10T14:31:32.768Z,4
2023-03-10T14:32:40.080Z,4
2023-03-10T14:33:47.402Z,4
2023-03-10T14:34:56.253Z,4
2023-03-10T14:36:06.176Z,4
2023-03-10T14:37:13.452Z,4
2023-03-10T14:38:20.836Z,5
2023-03-10T14:39:28.278Z,4
2023-03-10T14:40:45.125Z,5
2023-03-10T14:41:54.993Z,5
2023-03-10T14:43:02.513Z,5
2023-03-10T14:44:09.541Z,4
2023-03-10T14:45:16.641Z,4
2023-03-10T14:46:29.294Z,5
2023-03-10T14:47:37.252Z,5
2023-03-10T14:48:44.102Z,5
2023-03-10T14:49:52.627Z,5
2023-03-10T14:50:59.793Z,4
2023-03-10T14:52:07.781Z,5
2023-03-10T14:53:15.750Z,5
2023-03-10T14:54:27.366Z,5
2023-03-10T14:55:35.322Z,5
2023-03-10T14:56:45.373Z,4
2023-03-10T14:57:53.409Z,5
2023-03-10T14:59:03.712Z,5
2023-03-10T15:00:10.770Z,5
2023-03-10T15:01:22.328Z,5
2023-03-10T15:02:29.365Z,5
2023-03-10T15:03:37.976Z,4
2023-03-10T15:04:45.469Z,4
2023-03-10T15:05:52.518Z,4
2023-03-10T15:07:00.105Z,4
2023-03-10T15:08:08.223Z,5
2023-03-10T15:09:15.384Z,4
2023-03-10T15:10:22.500Z,5
2023-03-10T15:11:37.220Z,5
2023-03-10T15:12:39.625Z,5
2023-03-10T15:13:46.737Z,6
2023-03-10T15:14:54.547Z,7
2023-03-10T15:16:01.748Z,6
2023-03-10T15:17:09.229Z,6
2023-03-10T15:18:16.414Z,5
2023-03-10T15:19:27.444Z,6
2023-03-10T15:20:34.469Z,6
2023-03-10T15:21:41.692Z,7
2023-03-10T15:22:48.812Z,7
2023-03-10T15:23:56.120Z,6
2023-03-10T15:25:07.514Z,6
2023-03-10T15:26:14.664Z,6
2023-03-10T15:27:23.421Z,6
2023-03-10T15:28:31.041Z,7
2023-03-10T15:29:43.660Z,6
2023-03-10T15:30:50.802Z,6
2023-03-10T15:31:57.758Z,7
2023-03-10T15:33:06.334Z,7
2023-03-10T15:34:13.365Z,6
2023-03-10T15:35:20.409Z,6
2023-03-10T15:36:27.914Z,6
2023-03-10T15:37:36.138Z,6
2023-03-10T15:38:43.120Z,6
2023-03-10T15:39:50.898Z,6
2023-03-10T15:40:58.662Z,6
2023-03-10T15:42:06.021Z,6
2023-03-10T15:43:13.196Z,6
2023-03-10T15:44:20.736Z,6
2023-03-10T15:45:27.905Z,6
2023-03-10T15:46:35.450Z,6
2023-03-10T15:47:42.373Z,6
2023-03-10T15:48:54.000Z,6
2023-03-10T15:50:01.180Z,6
2023-03-10T15:51:09.716Z,5
2023-03-10T15:52:18.524Z,6
2023-03-10T15:53:26.777Z,6
2023-03-10T15:54:33.912Z,6
2023-03-10T15:55:42.980Z,6
2023-03-10T15:56:50.932Z,7
2023-03-10T15:58:01.741Z,7
2023-03-10T15:59:11.432Z,7
2023-03-10T16:00:19.552Z,6
2023-03-10T16:01:34.600Z,7
2023-03-10T16:02:41.624Z,7
2023-03-10T16:03:48.753Z,7
2023-03-10T16:04:58.495Z,6
2023-03-10T16:06:06.444Z,6
2023-03-10T16:07:13.686Z,6
2023-03-10T16:08:22.853Z,7
2023-03-10T16:09:29.883Z,6
2023-03-10T16:10:37.138Z,7
2023-03-10T16:11:44.243Z,6
2023-03-10T16:12:51.603Z,6
2023-03-10T16:13:58.751Z,6
2023-03-10T16:15:09.190Z,6
2023-03-10T16:16:20.648Z,7
2023-03-10T16:17:28.394Z,7
2023-03-10T16:18:35.680Z,7
2023-03-10T16:19:45.667Z,7
2023-03-10T16:20:52.814Z,7
2023-03-10T16:22:00.829Z,8
2023-03-10T16:23:09.504Z,8
2023-03-10T16:24:18.177Z,8
2023-03-10T16:25:26.733Z,8
2023-03-10T16:27:03.529Z,8
2023-03-10T16:29:07.497Z,10
2023-03-10T16:30:29.605Z,10
2023-03-10T16:31:48.004Z,8
2023-03-10T16:33:33.341Z,7
2023-03-10T16:35:06.797Z,7
2023-03-10T16:36:21.503Z,7
2023-03-10T16:37:29.872Z,7
2023-03-10T16:38:37.798Z,9
2023-03-10T16:39:46.631Z,7
2023-03-10T16:40:54.793Z,8
2023-03-10T16:42:04.721Z,8
2023-03-10T16:43:12.631Z,8
2023-03-10T16:44:21.449Z,9
2023-03-10T16:45:30.017Z,9
2023-03-10T16:46:39.235Z,10
2023-03-10T16:47:49.162Z,12
2023-03-10T16:49:02.335Z,13
2023-03-10T16:50:13.549Z,12
2023-03-10T16:51:21.537Z,13
2023-03-10T16:52:34.197Z,13
2023-03-10T16:53:44.203Z,12
2023-03-10T16:54:52.633Z,12
2023-03-10T16:56:01.292Z,13
2023-03-10T16:57:09.232Z,14
2023-03-10T16:58:17.084Z,13
2023-03-10T16:59:25.103Z,13